Current Conditions
Rain
Conditions



Pressure
1019.92 (hPa) - 30.12 (inHG)
Visibility

9.0 (km) - 5.6 (miles)
Temperature
6  °C
Temperature
5  °C
Dewpoint
93  %
 Humidity
Wind Speed
14  km/h
8  kts
9  mph
4.0  m/s
Wind Direction
N
45°
E
90°
135°
S
180°
225°
W
270°
315°
 20°

North North
East
Airport Data
EHAM
Amsterdam Airport Schiphol
Metar :EHAM 051455Z 02008KT 350V060 9000 -RADZ FEW008 BKN012 BKN022 06/05 Q1020 TEMPO SCT013
Mon 5th December 15:55 pm
Raw Metar Info
Raw METAR is the most common format in the world for the transmission of observational weather data. It is highly standardized through the International Civil Aviation Organization (ICAO), which allows it to be understood throughout most of the world.
API Info
Data Provided by
https://www.checkwx.com/weather/EHAM

Aviation Weather providing METAR, TAF, AIRMET, SIGMET and OUTLOOK Weather Reports
© Info
CSS/SVG/PHP scripts were developed by weather34.com for use in the weather34 template © 2015-2022

Guide Info provided by Metar-Wikipedia